createdAt,value
2016-09-25T00:00:51.788Z,16.06
2016-09-25T00:01:51.777Z,16.02
2016-09-25T00:02:51.873Z,16
2016-09-25T00:03:51.741Z,16.02
2016-09-25T00:04:51.757Z,16.02
2016-09-25T00:05:51.718Z,15.96
2016-09-25T00:06:51.829Z,15.92
2016-09-25T00:07:51.823Z,16.02
2016-09-25T00:08:51.805Z,15.92
2016-09-25T00:09:51.723Z,15.89
2016-09-25T00:10:51.811Z,15.88
2016-09-25T00:11:51.937Z,15.91
2016-09-25T00:12:51.827Z,15.84
2016-09-25T00:13:51.842Z,15.86
2016-09-25T00:14:51.860Z,15.73
2016-09-25T00:15:51.818Z,15.81
2016-09-25T00:16:51.789Z,15.73
2016-09-25T00:17:51.883Z,15.67
2016-09-25T00:18:52.034Z,15.77
2016-09-25T00:19:52.210Z,15.6
2016-09-25T00:20:51.791Z,15.68
2016-09-25T00:21:51.808Z,15.62
2016-09-25T00:22:52.488Z,15.67
2016-09-25T00:23:51.834Z,15.63
2016-09-25T00:24:51.906Z,15.63
2016-09-25T00:25:51.923Z,15.6
2016-09-25T00:26:51.896Z,15.58
2016-09-25T00:27:51.938Z,15.68
2016-09-25T00:28:51.896Z,15.63
2016-09-25T00:29:51.942Z,15.62
2016-09-25T00:30:52.067Z,15.65
2016-09-25T00:31:51.844Z,15.62
2016-09-25T00:32:51.841Z,15.74
2016-09-25T00:33:52.059Z,15.67
2016-09-25T00:34:52.013Z,15.75
2016-09-25T00:35:51.865Z,15.65
2016-09-25T00:36:51.887Z,15.62
2016-09-25T00:37:51.926Z,15.59
2016-09-25T00:38:51.852Z,15.53
2016-09-25T00:39:51.894Z,15.55
2016-09-25T00:40:52.505Z,15.41
2016-09-25T00:41:51.908Z,15.53
2016-09-25T00:42:51.832Z,15.49
2016-09-25T00:43:51.943Z,15.41
2016-09-25T00:44:51.774Z,15.4
2016-09-25T00:45:51.941Z,15.53
2016-09-25T00:46:51.909Z,15.53
2016-09-25T00:47:51.960Z,15.58
2016-09-25T00:48:51.944Z,15.6
2016-09-25T00:49:51.915Z,15.58
2016-09-25T00:50:52.055Z,15.59
2016-09-25T00:51:51.842Z,15.58
2016-09-25T00:52:51.957Z,15.55
2016-09-25T00:53:51.887Z,15.55
2016-09-25T00:54:51.849Z,15.59
2016-09-25T00:55:51.970Z,15.52
2016-09-25T00:56:51.918Z,15.56
2016-09-25T00:57:51.996Z,15.63
2016-09-25T00:58:51.944Z,15.53
2016-09-25T00:59:51.911Z,15.62
2016-09-25T01:00:51.864Z,15.62
2016-09-25T01:01:51.957Z,15.52
2016-09-25T01:02:51.993Z,15.55
2016-09-25T01:03:52.008Z,15.52
2016-09-25T01:04:51.913Z,15.53
2016-09-25T01:05:51.888Z,15.56
2016-09-25T01:06:52.051Z,15.58
2016-09-25T01:07:52.003Z,15.55
2016-09-25T01:08:51.956Z,15.44
2016-09-25T01:09:51.915Z,15.47
2016-09-25T01:10:52.034Z,15.47
2016-09-25T01:11:52.023Z,15.53
2016-09-25T01:12:51.981Z,15.53
2016-09-25T01:13:52.004Z,15.59
2016-09-25T01:14:51.995Z,15.55
2016-09-25T01:15:51.992Z,15.56
2016-09-25T01:16:51.934Z,15.52
2016-09-25T01:17:51.997Z,15.43
2016-09-25T01:18:52.026Z,15.45
2016-09-25T01:19:52.012Z,15.37
2016-09-25T01:20:52.135Z,15.3
2016-09-25T01:21:51.922Z,15.23
2016-09-25T01:22:52.125Z,15.23
2016-09-25T01:23:52.088Z,15.23
2016-09-25T01:24:51.985Z,15.2
2016-09-25T01:25:51.990Z,15.2
2016-09-25T01:26:52.199Z,15.07
2016-09-25T01:27:52.007Z,15.01
2016-09-25T01:28:51.985Z,15.02
2016-09-25T01:29:52.058Z,14.95
2016-09-25T01:30:52.008Z,14.93
2016-09-25T01:31:52.080Z,14.8
2016-09-25T01:32:51.971Z,14.8
2016-09-25T01:33:52.031Z,14.79
2016-09-25T01:34:52.017Z,14.71
2016-09-25T01:35:52.089Z,14.8
2016-09-25T01:36:52.084Z,14.77
2016-09-25T01:37:51.985Z,14.66
2016-09-25T01:38:52.142Z,14.79
2016-09-25T01:39:52.038Z,14.7
2016-09-25T01:40:52.069Z,14.8
2016-09-25T01:41:52.077Z,14.83
2016-09-25T01:42:51.976Z,14.8
2016-09-25T01:43:52.052Z,14.74
2016-09-25T01:44:52.036Z,14.79
2016-09-25T01:45:52.055Z,14.79
2016-09-25T01:46:52.036Z,14.71
2016-09-25T01:47:52.082Z,14.7
2016-09-25T01:48:52.201Z,14.74
2016-09-25T01:49:52.032Z,14.7
2016-09-25T01:50:52.078Z,14.74
2016-09-25T01:51:52.139Z,14.75
2016-09-25T01:52:52.129Z,14.7
2016-09-25T01:53:52.230Z,14.77
2016-09-25T01:54:52.256Z,14.69
2016-09-25T01:55:52.152Z,14.69
2016-09-25T01:56:52.124Z,14.64
2016-09-25T01:57:52.114Z,14.64
2016-09-25T01:58:52.149Z,14.77
2016-09-25T01:59:52.171Z,14.75
2016-09-25T02:00:52.012Z,14.63
2016-09-25T02:01:52.108Z,14.6
2016-09-25T02:02:52.119Z,14.52
2016-09-25T02:03:52.165Z,14.6
2016-09-25T02:04:52.116Z,14.67
2016-09-25T02:05:52.098Z,14.57
2016-09-25T02:06:52.170Z,14.64
2016-09-25T02:07:52.119Z,14.6
2016-09-25T02:08:52.106Z,14.66
2016-09-25T02:09:52.116Z,14.46
2016-09-25T02:10:52.229Z,14.51
2016-09-25T02:11:52.171Z,14.44
2016-09-25T02:12:52.082Z,14.49
2016-09-25T02:13:52.191Z,14.48
2016-09-25T02:14:52.119Z,14.51
2016-09-25T02:15:52.403Z,14.48
2016-09-25T02:16:52.208Z,14.49
2016-09-25T02:17:52.136Z,14.41
2016-09-25T02:18:52.141Z,14.46
2016-09-25T02:19:52.047Z,14.46
2016-09-25T02:20:52.167Z,14.52
2016-09-25T02:21:52.202Z,14.41
2016-09-25T02:22:52.103Z,14.42
2016-09-25T02:23:52.164Z,14.31
2016-09-25T02:24:52.215Z,14.26
2016-09-25T02:25:52.226Z,14.19
2016-09-25T02:26:52.479Z,14.19
2016-09-25T02:27:52.196Z,14.12
2016-09-25T02:28:52.233Z,14.24
2016-09-25T02:29:52.189Z,14.2
2016-09-25T02:30:52.187Z,14.08
2016-09-25T02:31:52.360Z,14.05
2016-09-25T02:32:52.144Z,14.06
2016-09-25T02:33:52.100Z,14.03
2016-09-25T02:34:52.114Z,14.05
2016-09-25T02:35:52.247Z,14.06
2016-09-25T02:36:52.204Z,14.09
2016-09-25T02:37:52.140Z,14.12
2016-09-25T02:38:52.262Z,14.12
2016-09-25T02:39:52.233Z,14.11
2016-09-25T02:40:52.190Z,14.19
2016-09-25T02:41:52.199Z,14.21
2016-09-25T02:42:52.677Z,14.08
2016-09-25T02:43:52.279Z,14.16
2016-09-25T02:44:52.194Z,13.97
2016-09-25T02:45:52.155Z,14.06
2016-09-25T02:46:52.251Z,14.02
2016-09-25T02:47:52.511Z,13.91
2016-09-25T02:48:52.267Z,13.99
2016-09-25T02:49:52.263Z,14.02
2016-09-25T02:50:52.205Z,13.9
2016-09-25T02:51:52.208Z,13.86
2016-09-25T02:52:52.217Z,13.83
2016-09-25T02:53:52.305Z,13.88
2016-09-25T02:54:52.313Z,13.84
2016-09-25T02:55:52.222Z,13.73
2016-09-25T02:56:52.244Z,13.79
2016-09-25T02:57:52.163Z,13.73
2016-09-25T02:58:52.346Z,13.76
2016-09-25T02:59:52.312Z,13.69
2016-09-25T03:00:52.169Z,13.7
2016-09-25T03:01:52.293Z,13.69
2016-09-25T03:02:52.233Z,13.66
2016-09-25T03:03:52.485Z,13.68
2016-09-25T03:04:52.329Z,13.69
2016-09-25T03:05:52.322Z,13.66
2016-09-25T03:06:52.274Z,13.63
2016-09-25T03:07:52.265Z,13.55
2016-09-25T03:08:52.254Z,13.62
2016-09-25T03:09:52.264Z,13.68
2016-09-25T03:10:52.361Z,13.7
2016-09-25T03:11:52.341Z,13.68
2016-09-25T03:12:52.273Z,13.62
2016-09-25T03:13:52.371Z,13.65
2016-09-25T03:14:52.414Z,13.66
2016-09-25T03:15:52.287Z,13.6
2016-09-25T03:16:52.290Z,13.65
2016-09-25T03:17:52.303Z,13.68
2016-09-25T03:18:52.261Z,13.68
2016-09-25T03:19:52.578Z,13.62
2016-09-25T03:20:52.306Z,13.66
2016-09-25T03:21:52.301Z,13.62
2016-09-25T03:22:52.391Z,13.63
2016-09-25T03:23:52.352Z,13.48
2016-09-25T03:24:52.381Z,13.57
2016-09-25T03:25:52.385Z,13.48
2016-09-25T03:26:52.349Z,13.54
2016-09-25T03:27:52.353Z,13.62
2016-09-25T03:28:52.379Z,13.55
2016-09-25T03:29:52.317Z,13.62
2016-09-25T03:30:52.449Z,13.7
2016-09-25T03:31:52.270Z,13.72
2016-09-25T03:32:52.384Z,13.63
2016-09-25T03:33:52.371Z,13.66
2016-09-25T03:34:52.414Z,13.58
2016-09-25T03:35:52.625Z,13.54
2016-09-25T03:36:52.404Z,13.48
2016-09-25T03:37:52.431Z,13.54
2016-09-25T03:38:52.410Z,13.54
2016-09-25T03:39:52.361Z,13.53
2016-09-25T03:40:52.410Z,13.39
2016-09-25T03:41:52.386Z,13.27
2016-09-25T03:42:52.439Z,13.35
2016-09-25T03:43:52.408Z,13.35
2016-09-25T03:44:52.290Z,13.35
2016-09-25T03:45:52.445Z,13.29
2016-09-25T03:46:52.522Z,13.09
2016-09-25T03:47:52.414Z,13.07
2016-09-25T03:48:52.461Z,12.94
2016-09-25T03:49:52.473Z,12.92
2016-09-25T03:50:52.396Z,12.83
2016-09-25T03:51:52.666Z,12.86
2016-09-25T03:52:52.473Z,12.94
2016-09-25T03:53:52.466Z,12.95
2016-09-25T03:54:52.388Z,13.07
2016-09-25T03:55:52.393Z,13.14
2016-09-25T03:56:52.371Z,13.16
2016-09-25T03:57:52.468Z,13.25
2016-09-25T03:58:52.447Z,13.09
2016-09-25T03:59:52.463Z,13.2
2016-09-25T04:00:52.425Z,13.17
2016-09-25T04:01:52.455Z,13.11
2016-09-25T04:02:52.534Z,13.11
2016-09-25T04:03:52.470Z,13.07
2016-09-25T04:04:52.387Z,13.11
2016-09-25T04:05:52.414Z,13.09
2016-09-25T04:06:52.446Z,13.07
2016-09-25T04:07:52.709Z,13.16
2016-09-25T04:08:52.532Z,13.16
2016-09-25T04:09:52.516Z,13.14
2016-09-25T04:10:52.501Z,13.16
2016-09-25T04:11:52.459Z,13.14
2016-09-25T04:12:52.446Z,13.01
2016-09-25T04:13:52.361Z,12.88
2016-09-25T04:14:52.399Z,12.88
2016-09-25T04:15:52.502Z,12.86
2016-09-25T04:16:52.424Z,12.81
2016-09-25T04:17:52.430Z,12.83
2016-09-25T04:18:52.668Z,12.77
2016-09-25T04:19:52.552Z,12.77
2016-09-25T04:20:52.504Z,12.63
2016-09-25T04:21:52.547Z,12.76
2016-09-25T04:22:52.561Z,12.69
2016-09-25T04:23:52.848Z,12.8
2016-09-25T04:24:52.521Z,12.8
2016-09-25T04:25:52.567Z,12.73
2016-09-25T04:26:52.508Z,12.71
2016-09-25T04:27:52.562Z,12.74
2016-09-25T04:28:52.486Z,12.77
2016-09-25T04:29:52.536Z,12.77
2016-09-25T04:30:52.547Z,12.76
2016-09-25T04:31:52.495Z,12.73
2016-09-25T04:32:52.505Z,12.73
2016-09-25T04:33:52.504Z,12.77
2016-09-25T04:34:52.639Z,12.86
2016-09-25T04:35:52.427Z,12.78
2016-09-25T04:36:52.501Z,12.77
2016-09-25T04:37:52.562Z,12.71
2016-09-25T04:38:52.517Z,12.62
2016-09-25T04:39:52.476Z,12.62
2016-09-25T04:40:52.564Z,12.65
2016-09-25T04:41:52.605Z,12.58
2016-09-25T04:42:52.601Z,12.52
2016-09-25T04:43:52.491Z,12.31
2016-09-25T04:44:52.533Z,12.23
2016-09-25T04:45:52.625Z,12.03
2016-09-25T04:46:52.557Z,12.01
2016-09-25T04:47:52.572Z,11.82
2016-09-25T04:48:52.549Z,11.75
2016-09-25T04:49:52.544Z,11.64
2016-09-25T04:50:52.983Z,11.73
2016-09-25T04:51:52.520Z,11.64
2016-09-25T04:52:52.574Z,11.52
2016-09-25T04:53:52.565Z,11.56
2016-09-25T04:54:52.608Z,11.85
2016-09-25T04:55:52.830Z,11.78
2016-09-25T04:56:52.581Z,11.88
2016-09-25T04:57:52.610Z,11.76
2016-09-25T04:58:52.677Z,11.7
2016-09-25T04:59:52.584Z,11.57
2016-09-25T05:00:52.625Z,11.49
2016-09-25T05:01:52.580Z,11.42
2016-09-25T05:02:52.583Z,11.48
2016-09-25T05:03:52.632Z,11.42
2016-09-25T05:04:52.521Z,11.51
2016-09-25T05:05:52.676Z,11.71
2016-09-25T05:06:53.134Z,11.88
2016-09-25T05:07:52.615Z,11.91
2016-09-25T05:08:52.599Z,12.1
2016-09-25T05:09:52.678Z,12.22
2016-09-25T05:10:52.677Z,12.2
2016-09-25T05:11:52.609Z,12.4
2016-09-25T05:12:52.702Z,12.34
2016-09-25T05:13:52.606Z,12.38
2016-09-25T05:14:52.657Z,12.33
2016-09-25T05:15:52.636Z,12.29
2016-09-25T05:16:52.715Z,12.36
2016-09-25T05:17:52.678Z,12.43
2016-09-25T05:18:52.618Z,12.56
2016-09-25T05:19:52.620Z,12.55
2016-09-25T05:20:52.630Z,12.51
2016-09-25T05:21:52.608Z,12.47
2016-09-25T05:22:52.737Z,12.51
2016-09-25T05:23:52.638Z,12.37
2016-09-25T05:24:52.680Z,12.48
2016-09-25T05:25:52.599Z,12.36
2016-09-25T05:26:52.574Z,12.44
2016-09-25T05:27:52.646Z,12.4
2016-09-25T05:28:52.728Z,12.4
2016-09-25T05:29:52.668Z,12.4
2016-09-25T05:30:52.723Z,12.4
2016-09-25T05:31:52.668Z,12.37
2016-09-25T05:32:52.755Z,12.38
2016-09-25T05:33:52.663Z,12.43
2016-09-25T05:34:52.709Z,12.44
2016-09-25T05:35:52.688Z,12.48
2016-09-25T05:36:52.713Z,12.45
2016-09-25T05:37:52.761Z,12.48
2016-09-25T05:38:52.850Z,12.41
2016-09-25T05:39:53.395Z,12.41
2016-09-25T05:40:52.766Z,12.41
2016-09-25T05:41:52.779Z,12.33
2016-09-25T05:42:52.776Z,12.44
2016-09-25T05:43:52.638Z,12.53
2016-09-25T05:44:52.743Z,12.53
2016-09-25T05:45:52.731Z,12.45
2016-09-25T05:46:52.709Z,12.37
2016-09-25T05:47:52.710Z,12.37
2016-09-25T05:48:52.722Z,12.45
2016-09-25T05:49:52.719Z,12.44
2016-09-25T05:50:52.769Z,12.45
2016-09-25T05:51:52.635Z,12.55
2016-09-25T05:52:52.653Z,12.58
2016-09-25T05:53:52.690Z,12.73
2016-09-25T05:54:52.779Z,12.83
2016-09-25T05:55:52.783Z,12.7
2016-09-25T05:56:52.661Z,12.8
2016-09-25T05:57:52.724Z,12.74
2016-09-25T05:58:52.739Z,12.76
2016-09-25T05:59:52.921Z,12.91
2016-09-25T06:00:52.786Z,13.02
2016-09-25T06:01:52.750Z,12.96
2016-09-25T06:02:52.759Z,13.03
2016-09-25T06:03:52.789Z,13.11
2016-09-25T06:04:52.771Z,13.07
2016-09-25T06:05:52.794Z,13.11
2016-09-25T06:06:52.767Z,13.2
2016-09-25T06:07:52.835Z,13.27
2016-09-25T06:08:52.732Z,13.17
2016-09-25T06:09:52.848Z,13.31
2016-09-25T06:10:52.915Z,13.39
2016-09-25T06:11:52.848Z,13.37
2016-09-25T06:12:52.846Z,13.54
2016-09-25T06:13:52.711Z,13.57
2016-09-25T06:14:52.758Z,13.68
2016-09-25T06:15:52.756Z,13.76
2016-09-25T06:16:52.853Z,13.79
2016-09-25T06:17:52.880Z,13.86
2016-09-25T06:18:52.848Z,13.72
2016-09-25T06:19:52.833Z,13.78
2016-09-25T06:20:52.884Z,13.86
2016-09-25T06:21:52.805Z,13.76
2016-09-25T06:22:52.768Z,13.83
2016-09-25T06:23:52.888Z,13.84
2016-09-25T06:24:52.725Z,13.99
2016-09-25T06:25:52.877Z,13.91
2016-09-25T06:26:52.896Z,14.11
2016-09-25T06:27:52.780Z,14.15
2016-09-25T06:28:52.900Z,14.31
2016-09-25T06:29:52.875Z,14.16
2016-09-25T06:30:52.831Z,14.16
2016-09-25T06:31:52.810Z,14.27
2016-09-25T06:32:52.923Z,14.16
2016-09-25T06:33:52.914Z,14.13
2016-09-25T06:34:52.910Z,14.33
2016-09-25T06:35:52.840Z,14.16
2016-09-25T06:36:52.918Z,14.09
2016-09-25T06:37:52.932Z,14.11
2016-09-25T06:38:52.819Z,14.19
2016-09-25T06:39:52.886Z,14.24
2016-09-25T06:40:52.865Z,14.28
2016-09-25T06:41:52.874Z,14.3
2016-09-25T06:42:53.017Z,14.31
2016-09-25T06:43:52.902Z,14.33
2016-09-25T06:44:52.908Z,14.44
2016-09-25T06:45:52.945Z,14.44
2016-09-25T06:46:52.910Z,14.63
2016-09-25T06:47:52.981Z,14.7
2016-09-25T06:48:52.955Z,14.7
2016-09-25T06:49:52.954Z,14.57
2016-09-25T06:50:52.927Z,14.69
2016-09-25T06:51:52.977Z,14.7
2016-09-25T06:52:52.899Z,14.86
2016-09-25T06:53:52.931Z,14.97
2016-09-25T06:54:52.854Z,15.16
2016-09-25T06:55:52.890Z,15.37
2016-09-25T06:56:52.976Z,15.38
2016-09-25T06:57:52.910Z,15.35
2016-09-25T06:58:53.094Z,15.26
2016-09-25T06:59:52.985Z,15.3
2016-09-25T07:00:52.994Z,15.38
2016-09-25T07:01:53.022Z,15.51
2016-09-25T07:02:52.883Z,15.65
2016-09-25T07:03:52.875Z,15.75
2016-09-25T07:04:52.933Z,15.68
2016-09-25T07:05:53.027Z,15.75
2016-09-25T07:06:52.938Z,15.8
2016-09-25T07:07:53.011Z,15.84
2016-09-25T07:08:52.947Z,15.83
2016-09-25T07:09:52.939Z,15.93
2016-09-25T07:10:52.952Z,16
2016-09-25T07:11:53.033Z,15.99
2016-09-25T07:12:52.992Z,16.08
2016-09-25T07:13:53.041Z,15.89
2016-09-25T07:14:53.047Z,16.14
2016-09-25T07:15:53.058Z,16.17
2016-09-25T07:16:52.887Z,16.39
2016-09-25T07:17:53.006Z,16.49
2016-09-25T07:18:53.007Z,16.29
2016-09-25T07:19:53.018Z,16.48
2016-09-25T07:20:52.980Z,16.59
2016-09-25T07:21:53.065Z,16.52
2016-09-25T07:22:53.021Z,16.49
2016-09-25T07:23:52.937Z,16.59
2016-09-25T07:24:52.955Z,16.74
2016-09-25T07:25:52.963Z,16.88
2016-09-25T07:26:52.998Z,17
2016-09-25T07:27:52.973Z,17.02
2016-09-25T07:28:53.082Z,17.12
2016-09-25T07:29:53.091Z,17.2
2016-09-25T07:30:53.134Z,17.22
2016-09-25T07:31:53.055Z,17.38
2016-09-25T07:32:53.057Z,17.21
2016-09-25T07:33:53.101Z,17.2
2016-09-25T07:34:52.946Z,17.42
2016-09-25T07:35:53.121Z,17.54
2016-09-25T07:36:53.042Z,17.69
2016-09-25T07:37:52.939Z,17.69
2016-09-25T07:38:53.113Z,17.81
2016-09-25T07:39:53.075Z,17.9
2016-09-25T07:40:53.117Z,17.96
2016-09-25T07:41:53.111Z,17.94
2016-09-25T07:42:52.957Z,17.81
2016-09-25T07:43:53.137Z,17.65
2016-09-25T07:44:53.089Z,17.73
2016-09-25T07:45:53.052Z,17.9
2016-09-25T07:46:53.247Z,18.17
2016-09-25T07:47:53.028Z,18.14
2016-09-25T07:48:52.991Z,18.08
2016-09-25T07:49:53.071Z,18.29
2016-09-25T07:50:53.152Z,18.44
2016-09-25T07:51:53.137Z,18.47
2016-09-25T07:52:53.087Z,18.54
2016-09-25T07:53:53.161Z,18.6
2016-09-25T07:54:53.115Z,18.6
2016-09-25T07:55:53.047Z,18.96
2016-09-25T07:56:53.168Z,19
2016-09-25T07:57:53.109Z,18.97
2016-09-25T07:58:53.108Z,18.97
2016-09-25T07:59:53.118Z,18.96
2016-09-25T08:00:53.145Z,19.07
2016-09-25T08:01:53.118Z,19.34
2016-09-25T08:02:53.303Z,19
2016-09-25T08:03:53.115Z,19.06
2016-09-25T08:04:53.187Z,19.53
2016-09-25T08:05:53.146Z,19.4
2016-09-25T08:06:53.111Z,19.25
2016-09-25T08:07:53.207Z,19.45
2016-09-25T08:08:53.107Z,19.47
2016-09-25T08:09:53.088Z,19.38
2016-09-25T08:10:53.165Z,19.28
2016-09-25T08:11:53.094Z,19.3
2016-09-25T08:12:53.213Z,19.52
2016-09-25T08:13:53.209Z,19.92
2016-09-25T08:14:53.106Z,19.75
2016-09-25T08:15:53.188Z,19.87
2016-09-25T08:16:53.232Z,20.02
2016-09-25T08:17:53.211Z,20.2
2016-09-25T08:18:53.276Z,20.4
2016-09-25T08:19:53.170Z,20.19
2016-09-25T08:20:53.203Z,20.15
2016-09-25T08:21:53.164Z,20.15
2016-09-25T08:22:53.260Z,20.27
2016-09-25T08:23:53.135Z,20.78
2016-09-25T08:24:53.210Z,20.78
2016-09-25T08:25:53.142Z,20.83
2016-09-25T08:26:53.178Z,20.83
2016-09-25T08:27:53.222Z,20.53
2016-09-25T08:28:53.270Z,20.29
2016-09-25T08:29:53.196Z,20.38
2016-09-25T08:30:53.265Z,20.78
2016-09-25T08:31:53.167Z,20.56
2016-09-25T08:32:53.231Z,21.13
2016-09-25T08:33:53.279Z,21.01
2016-09-25T08:34:53.420Z,20.98
2016-09-25T08:35:53.224Z,21.34
2016-09-25T08:36:53.210Z,21.19
2016-09-25T08:37:53.217Z,21.34
2016-09-25T08:38:53.175Z,21.21
2016-09-25T08:39:53.204Z,20.94
2016-09-25T08:40:53.148Z,21.19
2016-09-25T08:41:53.219Z,21.62
2016-09-25T08:42:53.289Z,22.09
2016-09-25T08:43:53.306Z,22.08
2016-09-25T08:44:53.234Z,21.64
2016-09-25T08:45:53.291Z,21.3
2016-09-25T08:46:53.218Z,21.13
2016-09-25T08:47:53.284Z,21.41
2016-09-25T08:48:53.258Z,21.73
2016-09-25T08:49:53.274Z,21.4
2016-09-25T08:50:53.432Z,21.16
2016-09-25T08:51:53.288Z,21.22
2016-09-25T08:52:53.342Z,21.01
2016-09-25T08:53:53.202Z,20.93
2016-09-25T08:54:53.303Z,21.01
2016-09-25T08:55:53.310Z,21.18
2016-09-25T08:56:53.302Z,21.38
2016-09-25T08:57:53.352Z,21.36
2016-09-25T08:58:53.238Z,21.38
2016-09-25T08:59:53.214Z,21.4
2016-09-25T09:00:53.196Z,21.31
2016-09-25T09:01:53.382Z,21.19
2016-09-25T09:02:53.363Z,21.23
2016-09-25T09:03:53.323Z,21.43
2016-09-25T09:04:53.377Z,21.94
2016-09-25T09:05:53.301Z,22.41
2016-09-25T09:06:53.540Z,22.81
2016-09-25T09:07:53.349Z,22.85
2016-09-25T09:08:53.402Z,23.38
2016-09-25T09:09:53.316Z,23.42
2016-09-25T09:10:53.371Z,22.55
2016-09-25T09:11:53.349Z,22.24
2016-09-25T09:12:53.407Z,22
2016-09-25T09:13:53.417Z,22.07
2016-09-25T09:14:53.378Z,22.08
2016-09-25T09:15:53.376Z,21.89
2016-09-25T09:16:53.379Z,21.94
2016-09-25T09:17:53.304Z,22.09
2016-09-25T09:18:53.334Z,22.27
2016-09-25T09:19:53.422Z,22.15
2016-09-25T09:20:53.273Z,22.41
2016-09-25T09:21:53.388Z,22.57
2016-09-25T09:22:53.459Z,22.91
2016-09-25T09:23:53.345Z,22.81
2016-09-25T09:24:53.413Z,22.82
2016-09-25T09:25:53.366Z,22.92
2016-09-25T09:26:53.411Z,22.69
2016-09-25T09:27:53.388Z,22.86
2016-09-25T09:28:53.416Z,22.94
2016-09-25T09:29:53.331Z,22.94
2016-09-25T09:30:53.377Z,22.61
2016-09-25T09:31:53.458Z,22.84
2016-09-25T09:32:53.312Z,22.99
2016-09-25T09:33:53.797Z,22.82
2016-09-25T09:34:53.414Z,22.75
2016-09-25T09:35:53.357Z,22.82
2016-09-25T09:36:53.417Z,22.92
2016-09-25T09:37:53.401Z,23.15
2016-09-25T09:38:53.550Z,23.32
2016-09-25T09:39:53.484Z,23.34
2016-09-25T09:40:53.388Z,23.6
2016-09-25T09:41:53.450Z,23.57
2016-09-25T09:42:53.408Z,23.4
2016-09-25T09:43:53.526Z,23.67
2016-09-25T09:44:53.431Z,23.87
2016-09-25T09:45:53.424Z,23.79
2016-09-25T09:46:53.407Z,24.04
2016-09-25T09:47:53.434Z,24.18
2016-09-25T09:48:53.447Z,24.07
2016-09-25T09:49:53.427Z,23.97
2016-09-25T09:50:53.428Z,24.11
2016-09-25T09:51:53.436Z,24.12
2016-09-25T09:52:53.441Z,24.21
2016-09-25T09:53:53.523Z,24.36
2016-09-25T09:54:53.722Z,24.15
2016-09-25T09:55:53.410Z,23.99
2016-09-25T09:56:53.480Z,23.96
2016-09-25T09:57:53.533Z,23.57
2016-09-25T09:58:53.436Z,23.45
2016-09-25T09:59:53.492Z,23.89
2016-09-25T10:00:53.551Z,23.75
2016-09-25T10:01:53.511Z,24.03
2016-09-25T10:02:53.508Z,24.07
2016-09-25T10:03:53.497Z,24.42
2016-09-25T10:04:53.489Z,24.87
2016-09-25T10:05:53.570Z,25.42
2016-09-25T10:06:53.445Z,25.48
2016-09-25T10:07:53.465Z,25.56
2016-09-25T10:08:53.496Z,25.22
2016-09-25T10:09:53.488Z,25.12
2016-09-25T10:10:53.652Z,24.56
2016-09-25T10:11:53.562Z,24.55
2016-09-25T10:12:53.494Z,24.29
2016-09-25T10:13:53.444Z,24.9
2016-09-25T10:14:53.505Z,24.61
2016-09-25T10:15:53.567Z,24.54
2016-09-25T10:16:53.554Z,24.9
2016-09-25T10:17:53.556Z,25.09
2016-09-25T10:18:53.470Z,25.09
2016-09-25T10:19:53.487Z,25.09
2016-09-25T10:20:53.585Z,24.94
2016-09-25T10:21:53.611Z,24.49
2016-09-25T10:22:53.534Z,24.45
2016-09-25T10:23:53.485Z,24.8
2016-09-25T10:24:53.520Z,24.96
2016-09-25T10:25:53.634Z,25.57
2016-09-25T10:26:53.668Z,25.85
2016-09-25T10:27:53.551Z,25.66
2016-09-25T10:28:53.629Z,25.14
2016-09-25T10:29:53.625Z,25.23
2016-09-25T10:30:53.639Z,25.64
2016-09-25T10:31:53.676Z,26.23
2016-09-25T10:32:53.630Z,26.49
2016-09-25T10:33:53.552Z,26.57
2016-09-25T10:34:53.565Z,26.44
2016-09-25T10:35:53.529Z,26.2
2016-09-25T10:36:53.686Z,25.91
2016-09-25T10:37:53.546Z,25.49
2016-09-25T10:38:53.577Z,25.45
2016-09-25T10:39:53.538Z,25.91
2016-09-25T10:40:53.629Z,26.34
2016-09-25T10:41:53.624Z,26
2016-09-25T10:42:53.779Z,25.94
2016-09-25T10:43:53.546Z,26.16
2016-09-25T10:44:53.521Z,26.12
2016-09-25T10:45:53.672Z,26.2
2016-09-25T10:46:53.640Z,26.23
2016-09-25T10:47:53.876Z,26.31
2016-09-25T10:48:53.694Z,26.3
2016-09-25T10:49:53.579Z,26.67
2016-09-25T10:50:53.647Z,27.13
2016-09-25T10:51:53.611Z,27.33
2016-09-25T10:52:53.615Z,27.16
2016-09-25T10:53:53.619Z,27.37
2016-09-25T10:54:53.712Z,26.99
2016-09-25T10:55:53.660Z,26.56
2016-09-25T10:56:53.707Z,26.32
2016-09-25T10:57:53.645Z,26.16
2016-09-25T10:58:53.839Z,26.47
2016-09-25T10:59:53.735Z,26.57
2016-09-25T11:00:53.560Z,26.34
2016-09-25T11:01:53.726Z,26.37
2016-09-25T11:02:53.581Z,26.45
2016-09-25T11:03:53.758Z,25.94
2016-09-25T11:04:53.679Z,26.03
2016-09-25T11:05:53.656Z,26.42
2016-09-25T11:06:53.672Z,26.6
2016-09-25T11:07:53.677Z,26.6
2016-09-25T11:08:53.692Z,26.63
2016-09-25T11:09:53.623Z,26.63
2016-09-25T11:10:53.746Z,26.89
2016-09-25T11:11:53.642Z,26.96
2016-09-25T11:12:53.737Z,27.43
2016-09-25T11:13:53.634Z,27.51
2016-09-25T11:14:53.722Z,28.09
2016-09-25T11:15:53.682Z,28.16
2016-09-25T11:16:53.597Z,28.31
2016-09-25T11:17:53.692Z,28.21
2016-09-25T11:18:53.770Z,27.79
2016-09-25T11:19:53.763Z,26.69
2016-09-25T11:20:53.707Z,26.34
2016-09-25T11:21:53.767Z,26.23
2016-09-25T11:22:53.675Z,26.12
2016-09-25T11:23:53.798Z,27.24
2016-09-25T11:24:53.649Z,27.71
2016-09-25T11:25:53.736Z,27.49
2016-09-25T11:26:53.719Z,27.8
2016-09-25T11:27:53.669Z,27.96
2016-09-25T11:28:53.729Z,28.51
2016-09-25T11:29:53.753Z,28.97
2016-09-25T11:30:54.105Z,29.51
2016-09-25T11:31:53.719Z,29.48
2016-09-25T11:32:53.731Z,28.49
2016-09-25T11:33:53.818Z,27.91
2016-09-25T11:34:53.824Z,27.46
2016-09-25T11:35:53.766Z,27.72
2016-09-25T11:36:53.822Z,28.06
2016-09-25T11:37:53.809Z,27.61
2016-09-25T11:38:53.767Z,27.16
2016-09-25T11:39:53.719Z,27.66
2016-09-25T11:40:53.726Z,27.79
2016-09-25T11:41:53.729Z,28.48
2016-09-25T11:42:53.762Z,29.02
2016-09-25T11:43:53.688Z,28.94
2016-09-25T11:44:53.744Z,29.33
2016-09-25T11:45:53.761Z,29.69
2016-09-25T11:46:53.930Z,29.94
2016-09-25T11:47:53.741Z,28.8
2016-09-25T11:48:53.692Z,27.9
2016-09-25T11:49:53.781Z,27.49
2016-09-25T11:50:53.819Z,27.76
2016-09-25T11:51:53.812Z,28.17
2016-09-25T11:52:53.785Z,28.16
2016-09-25T11:53:53.745Z,28.48
2016-09-25T11:54:53.874Z,28.95
2016-09-25T11:55:53.793Z,28.78
2016-09-25T11:56:53.881Z,28.51
2016-09-25T11:57:53.765Z,28.95
2016-09-25T11:58:53.880Z,29.02
2016-09-25T11:59:53.802Z,29.45
2016-09-25T12:00:53.852Z,29.26
2016-09-25T12:01:53.822Z,29.29
2016-09-25T12:02:54.030Z,29.61
2016-09-25T12:03:53.906Z,29.88
2016-09-25T12:04:53.909Z,29.35
2016-09-25T12:05:53.828Z,28.79
2016-09-25T12:06:53.909Z,28.65
2016-09-25T12:07:53.873Z,28.73
2016-09-25T12:08:53.949Z,28.86
2016-09-25T12:09:53.935Z,29.03
2016-09-25T12:10:53.905Z,29.1
2016-09-25T12:11:53.898Z,28.05
2016-09-25T12:12:53.900Z,27.52
2016-09-25T12:13:53.935Z,27.43
2016-09-25T12:14:53.897Z,27.38
2016-09-25T12:15:53.906Z,27.51
2016-09-25T12:16:53.856Z,27.71
2016-09-25T12:17:53.917Z,28.11
2016-09-25T12:18:54.067Z,28.48
2016-09-25T12:19:53.877Z,28.6
2016-09-25T12:20:53.911Z,28.46
2016-09-25T12:21:53.922Z,28.21
2016-09-25T12:22:53.887Z,28.2
2016-09-25T12:23:54.071Z,27.93
2016-09-25T12:24:53.972Z,28.11
2016-09-25T12:25:53.862Z,27.99
2016-09-25T12:26:53.844Z,28.17
2016-09-25T12:27:53.902Z,28.31
2016-09-25T12:28:53.962Z,28.6
2016-09-25T12:29:53.907Z,28.45
2016-09-25T12:30:53.905Z,28.91
2016-09-25T12:31:53.958Z,28.97
2016-09-25T12:32:53.896Z,29.13
2016-09-25T12:33:54.002Z,29.5
2016-09-25T12:34:54.107Z,28.92
2016-09-25T12:35:53.929Z,29.03
2016-09-25T12:36:53.987Z,28.76
2016-09-25T12:37:54.002Z,28.7
2016-09-25T12:38:53.919Z,29.05
2016-09-25T12:39:53.981Z,28.55
2016-09-25T12:40:53.982Z,28.55
2016-09-25T12:41:53.934Z,28.51
2016-09-25T12:42:53.932Z,28.38
2016-09-25T12:43:54.026Z,28.2
2016-09-25T12:44:54.030Z,28.16
2016-09-25T12:45:53.943Z,28.02
2016-09-25T12:46:53.957Z,28.12
2016-09-25T12:47:53.997Z,28.76
2016-09-25T12:48:53.960Z,29.23
2016-09-25T12:49:54.007Z,28.83
2016-09-25T12:50:54.043Z,28.36
2016-09-25T12:51:54.036Z,28.39
2016-09-25T12:52:53.950Z,29.3
2016-09-25T12:53:54.014Z,29.95
2016-09-25T12:54:53.982Z,29.5
2016-09-25T12:55:54.043Z,29.1